Flight Track Log - Related Links

Times and Time Zones

All times are in EDT time to prevent confusion due to time zone crossing. See the N229CN flight status page for this flight to view local times or setup timezone preferences in your user account.

Time Position Orientation Groundspeed Altitude Reporting Facility
EDT Latitude Longitude Course Direction KTS MPH feet Rate Location/Type
Wed 03:24:14 PM 37.4667 -77.3167 227° Southwest 195 224 2,900  Level Potomac TRACON
Wed 03:25:20 PM 37.4303 -77.3650 227° Southwest 197 227 6,600 2,857 Climbing Washington Center
Wed 03:26:20 PM 37.4228 -77.4328 262° West 192 221 8,900 1,950 Climbing Washington Center
Wed 03:27:20 PM 37.4133 -77.5136 262° West 217 250 10,500 2,200 Climbing Washington Center
Wed 03:28:20 PM 37.4036 -77.5969 262° West 232 267 13,300 2,000 Climbing Washington Center
Wed 03:29:20 PM 37.3914 -77.6933 261° West 260 299 14,500 1,800 Climbing Washington Center
Wed 03:30:20 PM 37.3814 -77.7925 263° West 281 323 16,900 2,150 Climbing Washington Center
Wed 03:31:20 PM 37.3692 -77.8914 261° West 286 329 18,800 1,550 Climbing Washington Center
Wed 03:32:20 PM 37.3567 -77.9931 261° West 291 335 20,000 850 Climbing Washington Center
Wed 03:33:20 PM 37.3314 -78.1019 254° West 306 352 20,500 1,000 Climbing Washington Center
Wed 03:34:20 PM 37.3150 -78.1953 258° West 311 358 22,000 1,500 Climbing Washington Center
Wed 03:35:20 PM 37.2917 -78.2989 254° West 311 358 23,500 1,600 Climbing Washington Center
Wed 03:36:20 PM 37.2828 -78.4161 265° West 318 366 25,200 2,150 Climbing Washington Center
Wed 03:37:20 PM 37.2783 -78.5153 267° West 304 350 27,800 2,100 Climbing Washington Center
Wed 03:38:20 PM 37.2675 -78.6114 262° West 293 337 29,400 1,600 Climbing Washington Center
Wed 03:39:20 PM 37.2589 -78.7075 264° West 287 330 31,000 1,700 Climbing Washington Center
Wed 03:40:20 PM 37.2483 -78.7933 261° West 287 330 32,800 1,850 Climbing Washington Center
Wed 03:41:20 PM 37.2375 -78.8842 262° West 282 325 34,700 1,850 Climbing Washington Center
Wed 03:42:20 PM 37.2264 -78.9775 262° West 272 313 36,500 1,900 Climbing Washington Center
Wed 03:43:20 PM 37.2178 -79.0658 263° West 272 313 38,500 1,950 Climbing Washington Center
Wed 03:44:20 PM 37.2089 -79.1514 263° West 242 278 40,400 1,250 Climbing Washington Center
Wed 03:45:20 PM 37.1981 -79.2317 260° West 236 272 41,000 450 Climbing Washington Center
Wed 03:46:20 PM 37.1869 -79.3225 261° West 248 285 41,300 450 Climbing Washington Center
Wed 03:47:20 PM 37.1778 -79.4158 263° West 262 302 41,900 700 Climbing Washington Center
Wed 03:48:20 PM 37.1683 -79.5144 263° West 275 316 42,700 550 Climbing Washington Center
Wed 03:49:20 PM 37.1569 -79.6053 261° West 290 334 43,000 150 Climbing Washington Center
Wed 03:50:20 PM 37.1453 -79.7086 262° West 295 339 43,000  Level Washington Center
Wed 03:51:20 PM 37.1331 -79.8200 262° West 313 360 43,000  Level Washington Center
Wed 03:53:05 PM 37.1061 -80.0233 261° West 339 390 43,000  Level Atlanta Center
Wed 03:54:05 PM 37.0931 -80.1383 262° West 339 390 43,000  Level Atlanta Center
Wed 03:55:05 PM 37.0803 -80.2561 262° West 339 390 43,000  Level Atlanta Center
Wed 03:56:05 PM 37.0656 -80.3894 262° West 350 403 43,000  Level Atlanta Center
Wed 03:57:05 PM 37.0503 -80.5122 261° West 355 409 43,000  Level Atlanta Center
Wed 03:58:05 PM 37.0347 -80.6300 261° West 355 409 43,000  Level Atlanta Center
Wed 03:59:05 PM 37.0194 -80.7503 261° West 355 409 43,000  Level Atlanta Center
Wed 04:00:05 PM 37.0056 -80.8575 261° West 355 409 43,000  Level Atlanta Center
Wed 04:01:05 PM 36.9917 -80.9750 262° West 349 402 43,000  Level Atlanta Center
Wed 04:02:05 PM 36.9778 -81.0872 261° West 344 396 43,000  Level Atlanta Center
Wed 04:03:05 PM 36.9617 -81.1994 260° West 338 389 43,000  Level Atlanta Center
Wed 04:04:05 PM 36.9478 -81.3222 262° West 338 389 43,000  Level Atlanta Center
Wed 04:05:05 PM 36.9336 -81.4317 261° West 333 383 43,000  Level Atlanta Center
Wed 04:06:05 PM 36.9192 -81.5464 261° West 333 383 43,000  Level Atlanta Center
Wed 04:07:05 PM 36.9108 -81.6428 264° West 333 383 43,000  Level Atlanta Center
Wed 04:07:35 PM 36.9039 -81.6994 261° West 325 374 43,000  Level Indianapolis Center
Wed 04:08:37 PM 36.8881 -81.8111 260° West 326 375 43,000  Level Indianapolis Center
Wed 04:09:39 PM 36.8719 -81.9381 261° West 319 367 43,000  Level Indianapolis Center
Wed 04:10:05 PM 36.8667 -81.9761 260° West 328 377 43,000  Level Atlanta Center
Wed 04:11:05 PM 36.8519 -82.0881 261° West 328 377 43,000  Level Atlanta Center
Wed 04:12:05 PM 36.8369 -82.1947 260° West 328 377 43,000  Level Atlanta Center
Wed 04:13:05 PM 36.8217 -82.3039 260° West 328 377 43,000  Level Atlanta Center
Wed 04:14:05 PM 36.8067 -82.4158 261° West 328 377 43,000  Level Atlanta Center
Wed 04:15:05 PM 36.7892 -82.5275 259° West 328 377 43,000  Level Atlanta Center
Wed 04:16:05 PM 36.7739 -82.6367 260° West 333 383 43,000  Level Atlanta Center
Wed 04:16:54 PM 36.7619 -82.7311 261° West 322 371 43,000  Level Indianapolis Center
Wed 04:17:56 PM 36.7453 -82.8403 259° West 317 365 43,000  Level Indianapolis Center
Wed 04:18:58 PM 36.7314 -82.9494 261° West 315 362 43,000  Level Indianapolis Center
Wed 04:20:00 PM 36.7161 -83.0575 260° West 314 361 43,000  Level Indianapolis Center
Wed 04:21:02 PM 36.7006 -83.1642 260° West 312 359 43,000  Level Indianapolis Center
Wed 04:22:04 PM 36.6831 -83.2886 260° West 312 359 43,000  Level Indianapolis Center
Wed 04:23:06 PM 36.6672 -83.3953 260° West 314 361 43,000  Level Indianapolis Center
Wed 04:24:08 PM 36.6514 -83.5033 260° West 316 364 43,000  Level Indianapolis Center
Wed 04:25:10 PM 36.6350 -83.6117 259° West 318 366 43,000  Level Indianapolis Center
Wed 04:26:12 PM 36.6192 -83.7214 260° West 322 371 43,000  Level Indianapolis Center
Wed 04:27:15 PM 36.6006 -83.8478 260° West 320 368 43,000  Level Indianapolis Center
Wed 04:28:17 PM 36.5836 -83.9575 259° West 323 372 43,000  Level Indianapolis Center
Wed 04:29:19 PM 36.5681 -84.0672 260° West 322 371 43,000  Level Indianapolis Center
Wed 04:30:21 PM 36.5514 -84.1736 259° West 317 365 43,000  Level Indianapolis Center
Wed 04:31:23 PM 36.5344 -84.2817 259° West 317 365 43,000  Level Indianapolis Center
Wed 04:32:25 PM 36.5150 -84.4081 259° West 317 365 43,000  Level Indianapolis Center
Wed 04:33:27 PM 36.4997 -84.5131 260° West 322 371 43,000  Level Indianapolis Center
Wed 04:34:29 PM 36.5028 -84.6214 272° West 315 362 43,000  Level Indianapolis Center
Wed 04:35:31 PM 36.5092 -84.7289 274° West 314 361 43,000  Level Indianapolis Center
Wed 04:36:33 PM 36.5164 -84.8564 274° West 310 357 43,000  Level Indianapolis Center
Wed 04:37:35 PM 36.4978 -84.9622 258° West 314 361 43,000  Level Indianapolis Center
Wed 04:38:37 PM 36.4775 -85.0681 257° West 315 362 43,000  Level Indianapolis Center
Wed 04:39:39 PM 36.4556 -85.1739 256° West 318 366 43,000  Level Indianapolis Center
Wed 04:40:41 PM 36.4333 -85.2822 256° West 324 373 43,000  Level Indianapolis Center
Wed 04:41:43 PM 36.4119 -85.3908 256° West 324 373 43,000  Level Indianapolis Center
Wed 04:42:45 PM 36.3844 -85.5189 255° West 321 369 43,000  Level Indianapolis Center
Wed 04:43:47 PM 36.3619 -85.6247 255° West 319 367 43,000  Level Indianapolis Center
Wed 04:44:49 PM 36.3403 -85.7294 256° West 315 362 43,000  Level Indianapolis Center
Wed 04:45:45 PM 36.3178 -85.8342 255° West 326 375 43,000  Level Memphis Center
Wed 04:46:46 PM 36.2983 -85.9253 255° West 320 368 43,000  Level Memphis Center
Wed 04:47:45 PM 36.2750 -86.0322 255° West 325 374 43,000  Level Memphis Center
Wed 04:48:45 PM 36.2536 -86.1389 256° West 325 374 43,000  Level Memphis Center
Wed 04:49:45 PM 36.2319 -86.2428 256° West 325 374 43,000  Level Memphis Center
Wed 04:50:45 PM 36.2083 -86.3442 254° West 320 368 43,000  Level Memphis Center
Wed 04:51:46 PM 36.1847 -86.4586 256° West 320 368 43,000  Level Memphis Center
Wed 04:52:45 PM 36.1608 -86.5625 254° West 325 374 43,000  Level Memphis Center
Wed 04:53:45 PM 36.1369 -86.6664 254° West 325 374 43,000  Level Memphis Center
Wed 04:54:45 PM 36.1233 -86.7750 261° West 320 368 43,000  Level Memphis Center
Wed 04:55:45 PM 36.1139 -86.8808 264° West 315 362 43,000  Level Memphis Center
Wed 04:56:45 PM 36.1042 -86.9789 263° West 315 362 43,000  Level Memphis Center
Wed 04:57:45 PM 36.0967 -87.0844 265° West 314 361 43,000  Level Memphis Center
Wed 04:58:45 PM 36.0869 -87.1903 264° West 314 361 43,000  Level Memphis Center
Wed 04:59:46 PM 36.0769 -87.2958 263° West 314 361 43,000  Level Memphis Center
Wed 05:00:45 PM 36.0669 -87.3989 263° West 314 361 43,000  Level Memphis Center
Wed 05:01:45 PM 36.0550 -87.5122 263° West 314 361 43,000  Level Memphis Center
Wed 05:02:45 PM 36.0450 -87.6206 264° West 314 361 43,000  Level Memphis Center
Wed 05:03:45 PM 36.0325 -87.7261 262° West 314 361 43,000  Level Memphis Center
Wed 05:04:45 PM 36.0244 -87.8289 264° West 314 361 43,000  Level Memphis Center
Wed 05:05:46 PM 36.0119 -87.9319 262° West 314 361 43,000  Level Memphis Center
Wed 05:06:46 PM 36.0033 -88.0350 264° West 314 361 43,000  Level Memphis Center
Wed 05:07:45 PM 35.9925 -88.1303 262° West 314 361 43,000  Level Memphis Center
Wed 05:08:45 PM 35.9819 -88.2408 263° West 309 356 43,000  Level Memphis Center
Wed 05:09:45 PM 35.9692 -88.3411 261° West 309 356 43,000  Level Memphis Center
Wed 05:10:45 PM 35.9561 -88.4414 261° West 309 356 43,000  Level Memphis Center
Wed 05:11:46 PM 35.9453 -88.5467 263° West 309 356 43,000  Level Memphis Center
Wed 05:12:45 PM 35.9342 -88.6497 262° West 309 356 43,000  Level Memphis Center
Wed 05:13:45 PM 35.9231 -88.7497 262° West 309 356 43,000  Level Memphis Center
Wed 05:14:46 PM 35.9097 -88.8550 261° West 309 356 43,000  Level Memphis Center
Wed 05:15:45 PM 35.8983 -88.9606 262° West 314 361 43,000  Level Memphis Center
Wed 05:16:45 PM 35.8850 -89.0606 261° West 309 356 43,000  Level Memphis Center
Wed 05:17:45 PM 35.8733 -89.1633 262° West 309 356 43,000  Level Memphis Center
Wed 05:18:45 PM 35.8639 -89.2531 263° West 309 356 43,000  Level Memphis Center
Wed 05:19:45 PM 35.8522 -89.3556 262° West 309 356 43,000  Level Memphis Center
Wed 05:20:45 PM 35.8383 -89.4556 260° West 309 356 43,000  Level Memphis Center
Wed 05:21:45 PM 35.8264 -89.5531 261° West 309 356 43,000  Level Memphis Center
Wed 05:22:45 PM 35.8147 -89.6531 262° West 304 350 43,000  Level Memphis Center
Wed 05:23:46 PM 35.8025 -89.7531 261° West 298 343 43,000 -600 Level Memphis Center
Wed 05:24:45 PM 35.7906 -89.8503 261° West 293 337 41,800 -1,462 Descending Memphis Center
Wed 05:25:45 PM 35.7806 -89.9400 262° West 293 337 40,100 -1,636 Descending Memphis Center
Wed 05:26:46 PM 35.7703 -90.0294 262° West 281 323 38,500 -1,600 Descending Memphis Center
Wed 05:27:45 PM 35.7558 -90.1319 260° West 279 321 36,900 -1,600 Descending Memphis Center
Wed 05:28:46 PM 35.7456 -90.2367 263° West 304 350 35,300 -1,450 Descending Memphis Center
Wed 05:29:45 PM 35.7311 -90.3417 260° West 310 357 34,000 -1,765 Descending Memphis Center
Wed 05:30:45 PM 35.7186 -90.4439 261° West 310 357 31,800 -1,884 Descending Memphis Center
Wed 05:31:46 PM 35.7039 -90.5486 260° West 315 362 30,200 -1,750 Descending Memphis Center
Wed 05:32:45 PM 35.6933 -90.6561 263° West 315 362 28,300 -1,966 Descending Memphis Center
Wed 05:33:45 PM 35.6847 -90.7558 264° West 308 354 26,300 -1,983 Descending Memphis Center
Wed 05:34:46 PM 35.6717 -90.8553 261° West 302 348 24,300 -1,983 Descending Memphis Center
Wed 05:35:46 PM 35.6567 -90.9497 259° West 289 333 22,300 -2,067 Descending Memphis Center
Wed 05:36:45 PM 35.6439 -91.0442 261° West 289 333 20,200 -2,067 Descending Memphis Center
Wed 05:37:45 PM 35.5933 -91.1203 231° Southwest 279 321 18,200 -1,850 Descending Memphis Center
Wed 05:38:45 PM 35.5322 -91.1989 226° Southwest 284 327 16,500 -1,850 Descending Memphis Center
Wed 05:39:45 PM 35.5150 -91.2856 256° West 261 300 14,500 -2,050 Descending Memphis Center
Wed 05:40:45 PM 35.5144 -91.3747 270° West 261 300 12,400 -2,033 Descending Memphis Center
Wed 05:41:46 PM 35.5136 -91.4692 269° West 266 306 10,400 -1,700 Descending Memphis Center
Wed 05:42:45 PM 35.5128 -91.5533 269° West 266 306 9,000 -1,462 Descending Memphis Center
Wed 05:43:45 PM 35.5142 -91.6297 271° West 250 288 7,500 -1,500 Descending Memphis Center
Wed 05:44:45 PM 35.5133 -91.7114 269° West 243 280 6,000 -1,500 Descending Memphis Center

Login

Don't have an account? Register now (free) for customized features, flight alerts, and more!